createdAt,value
2023-02-12T00:00:33.331Z,103760.91
2023-02-12T00:05:55.293Z,103755.72
2023-02-12T00:11:20.438Z,103756.78
2023-02-12T00:16:42.108Z,103751.94
2023-02-12T00:22:03.852Z,103750.41
2023-02-12T00:27:25.944Z,103749.94
2023-02-12T00:32:47.653Z,103753.94
2023-02-12T00:38:09.440Z,103752.78
2023-02-12T00:43:31.260Z,103754.88
2023-02-12T00:48:52.966Z,103754.38
2023-02-12T00:54:14.821Z,103751.09
2023-02-12T00:59:38.017Z,103743.16
2023-02-12T01:04:59.825Z,103749.91
2023-02-12T01:10:22.235Z,103754.97
2023-02-12T01:15:43.959Z,103752.38
2023-02-12T01:21:10.919Z,103754.47
2023-02-12T01:26:33.409Z,103748.25
2023-02-12T01:31:55.316Z,103744.97
2023-02-12T01:37:17.263Z,103745.31
2023-02-12T01:42:40.640Z,103739.09
2023-02-12T01:48:02.590Z,103750.38
2023-02-12T01:53:28.561Z,103743.09
2023-02-12T01:58:52.795Z,103744.34
2023-02-12T02:04:19.966Z,103745.56
2023-02-12T02:09:42.395Z,103741.25
2023-02-12T02:15:05.265Z,103739.50
2023-02-12T02:21:05.020Z,103732.22
2023-02-12T02:26:56.933Z,103743.69
2023-02-12T02:32:24.595Z,103736.75
2023-02-12T02:37:51.959Z,103729.47
2023-02-12T02:43:22.660Z,103736.06
2023-02-12T02:48:49.461Z,103730.88
2023-02-12T02:54:17.970Z,103724.63
2023-02-12T02:59:48.659Z,103730.19
2023-02-12T03:05:18.098Z,103735.06
2023-02-12T03:10:47.208Z,103728.84
2023-02-12T03:16:28.709Z,103725.38
2023-02-12T03:21:59.678Z,103730.41
2023-02-12T03:27:39.070Z,103724.00
2023-02-12T03:33:36.105Z,103726.06
2023-02-12T03:39:05.665Z,103727.31
2023-02-12T03:44:45.426Z,103721.75
2023-02-12T03:55:40.352Z,103716.75
2023-02-12T04:01:03.569Z,103716.06
2023-02-12T04:06:29.044Z,103725.44
2023-02-12T04:12:00.197Z,103733.94
2023-02-12T04:17:46.891Z,103721.97
2023-02-12T04:23:31.741Z,103729.63
2023-02-12T04:29:25.858Z,103741.06
2023-02-12T04:35:20.903Z,103743.16
2023-02-12T04:40:43.611Z,103751.66
2023-02-12T04:46:07.688Z,103745.25
2023-02-12T04:51:29.491Z,103753.75
2023-02-12T04:56:52.103Z,103763.09
2023-02-12T05:02:13.836Z,103752.19
2023-02-12T05:07:35.546Z,103752.34
2023-02-12T05:12:57.266Z,103754.28
2023-02-12T05:18:19.061Z,103751.66
2023-02-12T05:23:42.151Z,103757.41
2023-02-12T05:29:03.986Z,103750.13
2023-02-12T05:34:25.705Z,103746.66
2023-02-12T05:39:50.446Z,103741.31
2023-02-12T05:45:12.119Z,103749.78
2023-02-12T05:50:34.273Z,103757.25
2023-02-12T05:55:56.293Z,103749.13
2023-02-12T06:01:24.259Z,103758.47
2023-02-12T06:06:46.205Z,103762.28
2023-02-12T06:12:08.011Z,103760.56
2023-02-12T06:17:29.800Z,103770.94
2023-02-12T06:22:51.504Z,103773.72
2023-02-12T06:28:13.278Z,103775.78
2023-02-12T06:33:35.893Z,103767.66
2023-02-12T06:38:57.992Z,103772.88
2023-02-12T06:44:19.788Z,103778.56
2023-02-12T06:49:41.522Z,103777.09
2023-02-12T06:55:03.361Z,103780.03
2023-02-12T07:00:25.345Z,103779.44
2023-02-12T07:05:48.519Z,103790.88
2023-02-12T07:11:10.753Z,103783.34
2023-02-12T07:16:32.592Z,103794.16
2023-02-12T07:21:54.356Z,103794.81
2023-02-12T07:27:16.120Z,103799.31
2023-02-12T07:32:37.860Z,103804.34
2023-02-12T07:37:59.719Z,103809.34
2023-02-12T07:43:21.381Z,103812.41
2023-02-12T07:48:44.125Z,103809.72
2023-02-12T07:54:06.486Z,103801.63
2023-02-12T07:59:28.761Z,103808.59
2023-02-12T08:04:50.513Z,103811.75
2023-02-12T08:10:12.418Z,103825.13
2023-02-12T08:15:34.063Z,103813.34
2023-02-12T08:20:55.746Z,103818.88
2023-02-12T08:26:22.105Z,103823.06
2023-02-12T08:31:46.519Z,103817.50
2023-02-12T08:37:08.345Z,103824.09
2023-02-12T08:42:30.023Z,103829.66
2023-02-12T08:47:51.766Z,103834.50
2023-02-12T08:53:13.707Z,103835.75
2023-02-12T08:58:35.968Z,103837.28
2023-02-12T09:03:57.944Z,103830.56
2023-02-12T09:09:20.361Z,103834.81
2023-02-12T09:14:42.360Z,103838.03
2023-02-12T09:20:04.201Z,103838.34
2023-02-12T09:25:26.666Z,103837.66
2023-02-12T09:30:49.182Z,103838.81
2023-02-12T09:36:17.014Z,103843.75
2023-02-12T09:42:08.090Z,103848.66
2023-02-12T09:48:13.118Z,103841.59
2023-02-12T09:53:40.265Z,103846.66
2023-02-12T09:59:06.487Z,103854.84
2023-02-12T10:04:28.956Z,103851.56
2023-02-12T10:10:18.745Z,103856.72
2023-02-12T10:16:08.301Z,103863.06
2023-02-12T10:21:38.817Z,103858.00
2023-02-12T10:27:09.694Z,103861.97
2023-02-12T10:32:36.224Z,103853.00
2023-02-12T10:38:04.705Z,103857.41
2023-02-12T10:43:26.456Z,103849.09
2023-02-12T10:48:59.011Z,103855.03
2023-02-12T10:54:42.468Z,103852.31
2023-02-12T11:00:33.638Z,103852.72
2023-02-12T11:05:55.770Z,103845.44
2023-02-12T11:11:28.366Z,103833.34
2023-02-12T11:16:59.078Z,103830.38
2023-02-12T11:22:20.843Z,103837.03
2023-02-12T11:27:42.623Z,103826.53
2023-02-12T11:33:22.730Z,103825.69
2023-02-12T11:38:54.762Z,103817.53
2023-02-12T11:44:27.339Z,103828.41
2023-02-12T11:49:54.760Z,103824.38
2023-02-12T11:55:30.986Z,103818.22
2023-02-12T12:01:19.346Z,103817.22
2023-02-12T12:06:47.111Z,103794.28
2023-02-12T12:12:30.202Z,103802.75
2023-02-12T12:18:18.412Z,103786.84
2023-02-12T12:23:45.408Z,103792.63
2023-02-12T12:29:23.405Z,103786.59
2023-02-12T12:34:45.239Z,103780.97
2023-02-12T12:40:16.094Z,103769.75
2023-02-12T12:45:50.454Z,103776.63
2023-02-12T12:51:27.636Z,103778.28
2023-02-12T12:56:52.120Z,103771.09
2023-02-12T13:02:36.694Z,103764.34
2023-02-12T13:08:19.325Z,103751.59
2023-02-12T13:13:46.381Z,103757.03
2023-02-12T13:19:34.377Z,103731.91
2023-02-12T13:25:27.653Z,103719.34
2023-02-12T13:30:52.464Z,103723.94
2023-02-12T13:36:15.268Z,103722.09
2023-02-12T13:41:37.361Z,103713.28
2023-02-12T13:47:17.555Z,103719.91
2023-02-12T13:52:52.340Z,103714.66
2023-02-12T13:58:33.157Z,103706.00
2023-02-12T14:03:54.978Z,103697.97
2023-02-12T14:09:22.184Z,103699.81
2023-02-12T14:14:50.227Z,103697.28
2023-02-12T14:20:28.456Z,103695.06
2023-02-12T14:25:58.184Z,103696.63
2023-02-12T14:31:20.246Z,103694.91
2023-02-12T14:36:44.182Z,103691.44
2023-02-12T14:42:26.205Z,103681.16
2023-02-12T14:47:47.959Z,103679.66
2023-02-12T14:53:26.050Z,103683.69
2023-02-12T14:58:49.646Z,103685.69
2023-02-12T15:04:33.597Z,103688.19
2023-02-12T15:10:10.235Z,103682.34
2023-02-12T15:15:37.562Z,103681.66
2023-02-12T15:21:23.161Z,103676.88
2023-02-12T15:26:50.375Z,103672.06
2023-02-12T15:32:39.001Z,103664.09
2023-02-12T15:38:01.956Z,103670.06
2023-02-12T15:43:27.720Z,103665.06
2023-02-12T15:48:50.002Z,103668.03
2023-02-12T15:54:17.999Z,103656.63
2023-02-12T15:59:41.561Z,103653.84
2023-02-12T16:05:05.915Z,103657.69
2023-02-12T16:10:27.995Z,103654.22
2023-02-12T16:16:04.912Z,103656.66
2023-02-12T16:21:26.817Z,103654.94
2023-02-12T16:26:49.305Z,103644.22
2023-02-12T16:32:27.219Z,103654.25
2023-02-12T16:37:52.469Z,103647.19
2023-02-12T16:43:25.179Z,103642.88
2023-02-12T16:48:51.854Z,103645.53
2023-02-12T16:54:33.469Z,103646.09
2023-02-12T16:59:55.384Z,103651.19
2023-02-12T17:05:18.552Z,103656.22
2023-02-12T17:10:41.054Z,103649.50
2023-02-12T17:16:03.262Z,103648.56
2023-02-12T17:21:43.354Z,103646.00
2023-02-12T17:27:05.311Z,103648.00
2023-02-12T17:32:27.048Z,103646.28
2023-02-12T17:37:48.741Z,103653.28
2023-02-12T17:43:10.599Z,103651.34
2023-02-12T17:48:32.299Z,103649.16
2023-02-12T17:53:54.097Z,103655.50
2023-02-12T17:59:15.814Z,103651.72
2023-02-12T18:04:37.692Z,103649.03
2023-02-12T18:09:59.672Z,103647.38
2023-02-12T18:15:21.681Z,103646.22
2023-02-12T18:20:44.036Z,103637.56
2023-02-12T18:26:10.980Z,103640.91
2023-02-12T18:31:33.211Z,103639.06
2023-02-12T18:36:55.142Z,103640.69
2023-02-12T18:42:16.877Z,103632.06
2023-02-12T18:47:38.654Z,103635.38
2023-02-12T18:53:00.467Z,103629.53
2023-02-12T18:58:22.467Z,103632.31
2023-02-12T19:03:45.747Z,103636.25
2023-02-12T19:09:07.994Z,103642.03
2023-02-12T19:14:29.729Z,103643.34
2023-02-12T19:19:52.041Z,103641.09
2023-02-12T19:25:14.024Z,103641.28
2023-02-12T19:30:40.755Z,103632.75
2023-02-12T19:36:02.765Z,103633.09
2023-02-12T19:41:26.149Z,103626.63
2023-02-12T19:46:48.798Z,103627.81
2023-02-12T19:52:10.612Z,103616.66
2023-02-12T19:57:33.546Z,103623.44
2023-02-12T20:02:55.751Z,103625.47
2023-02-12T20:08:18.263Z,103629.19
2023-02-12T20:13:40.319Z,103630.78
2023-02-12T20:19:06.003Z,103632.59
2023-02-12T20:24:32.841Z,103645.09
2023-02-12T20:29:54.782Z,103637.25
2023-02-12T20:35:16.996Z,103633.94
2023-02-12T20:40:38.754Z,103633.41
2023-02-12T20:46:09.237Z,103636.94
2023-02-12T20:51:31.476Z,103629.41
2023-02-12T20:56:53.179Z,103636.75
2023-02-12T21:02:16.078Z,103630.63
2023-02-12T21:07:37.896Z,103631.81
2023-02-12T21:12:59.594Z,103627.03
2023-02-12T21:18:25.711Z,103627.78
2023-02-12T21:23:47.783Z,103626.16
2023-02-12T21:29:09.740Z,103621.19
2023-02-12T21:34:31.468Z,103626.25
2023-02-12T21:39:53.197Z,103632.00
2023-02-12T21:45:15.038Z,103624.53
2023-02-12T21:50:36.808Z,103627.31
2023-02-12T21:56:03.374Z,103622.13
2023-02-12T22:01:28.041Z,103608.16
2023-02-12T22:06:51.496Z,103615.13
2023-02-12T22:12:13.194Z,103609.25
2023-02-12T22:17:35.179Z,103607.22
2023-02-12T22:22:57.028Z,103614.41
2023-02-12T22:28:18.825Z,103617.97
2023-02-12T22:33:40.966Z,103615.91
2023-02-12T22:39:03.543Z,103612.47
2023-02-12T22:44:25.242Z,103623.66
2023-02-12T22:49:46.910Z,103612.75
2023-02-12T22:55:08.653Z,103613.28
2023-02-12T23:00:30.784Z,103618.34
2023-02-12T23:05:52.503Z,103614.03
2023-02-12T23:11:14.177Z,103607.81
2023-02-12T23:16:35.990Z,103600.03
2023-02-12T23:21:58.083Z,103603.19
2023-02-12T23:27:19.824Z,103595.22
2023-02-12T23:32:41.632Z,103603.06
2023-02-12T23:38:04.574Z,103602.59
2023-02-12T23:43:26.266Z,103591.84
2023-02-12T23:48:48.005Z,103589.28
2023-02-12T23:54:10.245Z,103579.41
2023-02-12T23:59:32.103Z,103581.66
